Time;durP1;ratioP1;P1;durP2;ratioP2;P2;SDS_P1;SDS_P2;PMS_P1;PMS_P2;Temp;Humidity;BMP_temperature;BMP_pressure;BME280_temperature;BME280_humidity;BME280_pressure;Samples;Min_cycle;Max_cycle;Signal;HPM_P1;HPM_P2
2023/05/07 00:00:23;;;;;;;10.85;9.55;;;14.30;99.90;;;;;;5140820;27;20133;-34
2023/05/07 00:02:48;;;;;;;11.20;10.07;;;14.20;99.90;;;;;;5138454;27;20411;-34
2023/05/07 00:05:14;;;;;;;11.27;10.05;;;14.20;99.90;;;;;;5144523;27;20122;-34
2023/05/07 00:07:40;;;;;;;11.48;10.23;;;14.10;99.90;;;;;;5138068;27;20035;-34
2023/05/07 00:10:06;;;;;;;13.00;10.57;;;14.20;99.90;;;;;;5138719;27;20038;-35
2023/05/07 00:12:35;;;;;;;13.10;11.13;;;14.50;99.90;;;;;;5158617;27;20038;-34
2023/05/07 00:15:05;;;;;;;12.93;10.57;;;14.20;99.90;;;;;;5146666;27;20039;-34
2023/05/07 00:17:33;;;;;;;12.40;11.07;;;14.30;99.90;;;;;;5142879;27;20038;-34
2023/05/07 00:19:58;;;;;;;13.38;12.07;;;14.30;99.90;;;;;;5158967;27;20535;-34
2023/05/07 00:22:24;;;;;;;12.50;11.20;;;14.30;99.90;;;;;;5157858;27;20030;-36
2023/05/07 00:24:50;;;;;;;13.32;11.77;;;14.20;99.90;;;;;;5145523;27;20550;-34
2023/05/07 00:27:16;;;;;;;13.98;12.63;;;14.00;99.90;;;;;;5143466;27;20043;-34
2023/05/07 00:29:41;;;;;;;14.70;13.02;;;14.00;99.90;;;;;;5137957;27;20368;-34
2023/05/07 00:32:10;;;;;;;15.55;13.10;;;14.20;99.90;;;;;;5138276;27;20509;-36
2023/05/07 00:34:36;;;;;;;16.40;13.35;;;14.00;99.90;;;;;;5143484;27;20058;-34
2023/05/07 00:37:02;;;;;;;17.02;13.93;;;14.20;99.90;;;;;;5158854;27;20503;-34
2023/05/07 00:39:27;;;;;;;16.40;14.70;;;14.00;99.90;;;;;;5155495;27;20070;-34
2023/05/07 00:41:53;;;;;;;17.25;15.27;;;14.20;99.90;;;;;;5137712;27;20050;-34
2023/05/07 00:44:19;;;;;;;16.52;14.43;;;14.10;99.90;;;;;;5138069;27;20126;-34
2023/05/07 00:46:45;;;;;;;17.67;14.98;;;13.90;99.90;;;;;;5143050;27;20054;-34
2023/05/07 00:49:11;;;;;;;18.67;16.10;;;14.10;99.90;;;;;;5158343;27;20486;-34
2023/05/07 00:51:37;;;;;;;19.92;15.90;;;14.00;99.90;;;;;;5146685;27;20030;-34
2023/05/07 00:54:03;;;;;;;18.73;15.35;;;13.90;99.90;;;;;;5147265;27;20050;-34
2023/05/07 00:56:28;;;;;;;18.20;16.20;;;14.00;99.90;;;;;;5175803;27;20044;-34
2023/05/07 00:58:55;;;;;;;18.88;16.40;;;13.70;99.90;;;;;;5137920;27;20484;-34
2023/05/07 01:01:21;;;;;;;20.30;17.73;;;13.70;99.90;;;;;;5137787;27;20070;-34
2023/05/07 01:03:46;;;;;;;20.67;18.33;;;13.70;99.90;;;;;;5148066;27;20314;-34
2023/05/07 01:06:16;;;;;;;20.15;18.15;;;13.80;99.90;;;;;;5147816;27;20407;-34
2023/05/07 01:08:42;;;;;;;23.38;18.42;;;13.80;99.90;;;;;;5143791;27;20117;-34
2023/05/07 01:11:10;;;;;;;21.27;19.08;;;13.60;99.90;;;;;;5158636;27;20454;-34
2023/05/07 01:13:37;;;;;;;19.90;17.80;;;13.70;99.90;;;;;;5143450;27;20300;-34
2023/05/07 01:16:03;;;;;;;18.63;16.42;;;13.50;99.90;;;;;;5137729;27;20034;-34
2023/05/07 01:18:32;;;;;;;21.77;19.33;;;13.40;99.90;;;;;;5147544;27;20448;-34
2023/05/07 01:20:59;;;;;;;19.73;17.63;;;13.30;99.90;;;;;;5144872;27;20038;-34
2023/05/07 01:23:27;;;;;;;21.10;17.92;;;13.40;99.90;;;;;;5148752;27;20035;-34
2023/05/07 01:25:53;;;;;;;19.65;17.58;;;13.50;99.90;;;;;;5151196;27;20094;-34
2023/05/07 01:28:19;;;;;;;21.60;18.05;;;13.30;99.90;;;;;;5137498;27;20556;-34
2023/05/07 01:30:51;;;;;;;21.83;19.30;;;13.40;99.90;;;;;;5158251;27;20034;-34
2023/05/07 01:33:21;;;;;;;22.27;19.13;;;13.30;99.90;;;;;;5144560;27;20503;-34
2023/05/07 01:35:51;;;;;;;21.13;18.85;;;13.20;99.90;;;;;;5137267;27;20043;-34
2023/05/07 01:38:18;;;;;;;23.05;18.02;;;13.20;99.90;;;;;;5156237;27;20045;-34
2023/05/07 01:40:44;;;;;;;22.60;19.20;;;13.10;99.90;;;;;;5142921;27;20058;-34
2023/05/07 01:43:10;;;;;;;21.80;18.83;;;13.30;99.90;;;;;;5157431;27;20049;-35
2023/05/07 01:45:36;;;;;;;21.98;18.77;;;13.00;99.90;;;;;;5136739;27;20168;-34
2023/05/07 01:48:03;;;;;;;21.63;18.90;;;13.10;99.90;;;;;;5136975;27;20113;-34
2023/05/07 01:50:30;;;;;;;21.75;19.45;;;13.20;99.90;;;;;;5151825;27;20053;-34
2023/05/07 01:52:56;;;;;;;21.25;17.75;;;12.90;99.90;;;;;;5175930;27;20030;-34
2023/05/07 01:55:22;;;;;;;20.98;18.60;;;12.80;99.90;;;;;;5157840;27;20118;-34
2023/05/07 01:57:48;;;;;;;23.02;19.90;;;12.90;99.90;;;;;;5157533;27;20034;-34
2023/05/07 02:00:14;;;;;;;22.60;20.05;;;12.80;99.90;;;;;;5156746;27;20488;-34
2023/05/07 02:02:39;;;;;;;22.02;18.27;;;12.80;99.90;;;;;;5148407;27;20399;-34
2023/05/07 02:05:06;;;;;;;25.73;21.02;;;12.80;99.90;;;;;;5136841;27;20118;-34
2023/05/07 02:07:31;;;;;;;24.77;19.35;;;12.90;99.90;;;;;;5157153;27;20026;-34
2023/05/07 02:09:57;;;;;;;24.05;20.00;;;12.60;99.90;;;;;;5175721;27;20101;-34
2023/05/07 02:12:23;;;;;;;23.60;19.95;;;12.90;99.90;;;;;;5157297;27;20042;-34
2023/05/07 02:14:49;;;;;;;23.83;20.48;;;12.80;99.90;;;;;;5139932;27;20114;-34
2023/05/07 02:17:14;;;;;;;26.08;20.75;;;12.50;99.90;;;;;;5156886;27;20114;-34
2023/05/07 02:19:40;;;;;;;26.95;21.85;;;12.60;99.90;;;;;;5148607;27;20091;-34
2023/05/07 02:22:07;;;;;;;26.15;22.05;;;12.60;99.90;;;;;;5136484;27;20395;-34
2023/05/07 02:24:32;;;;;;;25.65;20.95;;;12.60;99.90;;;;;;5136445;27;20038;-34
2023/05/07 02:26:58;;;;;;;27.92;22.08;;;12.60;99.90;;;;;;5146729;27;20501;-34
2023/05/07 02:29:24;;;;;;;34.45;23.45;;;12.50;99.90;;;;;;5153758;27;20162;-34
2023/05/07 02:31:50;;;;;;;25.08;21.75;;;12.60;99.90;;;;;;5150370;27;20034;-34
2023/05/07 02:34:17;;;;;;;27.55;23.17;;;12.50;99.90;;;;;;5136286;27;20576;-34
2023/05/07 02:36:43;;;;;;;28.70;22.63;;;12.40;99.90;;;;;;5136959;27;20172;-34
2023/05/07 02:39:08;;;;;;;27.85;21.73;;;12.40;99.90;;;;;;5145423;27;20042;-34
2023/05/07 02:41:34;;;;;;;30.50;22.88;;;12.60;99.90;;;;;;5135711;27;20039;-34
2023/05/07 02:44:00;;;;;;;34.65;25.50;;;12.30;99.90;;;;;;5146310;27;20070;-34
2023/05/07 02:46:27;;;;;;;28.67;23.73;;;12.40;99.90;;;;;;5156736;27;20090;-34
2023/05/07 02:48:52;;;;;;;30.02;23.67;;;12.50;99.90;;;;;;5155331;27;20034;-34
2023/05/07 02:51:20;;;;;;;30.50;25.17;;;12.50;99.90;;;;;;5135651;27;20495;-35
2023/05/07 02:53:46;;;;;;;30.40;24.00;;;12.50;99.90;;;;;;5135861;27;20073;-34
2023/05/07 02:56:12;;;;;;;30.55;24.77;;;12.40;99.90;;;;;;5149373;27;20499;-34
2023/05/07 02:58:39;;;;;;;32.40;24.73;;;12.40;99.90;;;;;;5144717;27;20039;-34
2023/05/07 03:01:05;;;;;;;29.02;25.50;;;12.40;99.90;;;;;;5135610;27;20039;-34
2023/05/07 03:03:31;;;;;;;32.97;25.73;;;12.40;99.90;;;;;;5135714;27;20030;-35
2023/05/07 03:05:57;;;;;;;35.70;27.15;;;12.30;99.90;;;;;;5135208;27;20182;-34
2023/05/07 03:08:24;;;;;;;33.03;27.15;;;12.30;99.90;;;;;;5135162;27;20038;-34
2023/05/07 03:10:50;;;;;;;32.38;24.65;;;12.10;99.90;;;;;;5145459;27;20041;-34
2023/05/07 03:13:16;;;;;;;30.92;25.50;;;12.10;99.90;;;;;;5150557;27;20034;-34
2023/05/07 03:15:42;;;;;;;35.20;25.80;;;12.10;99.90;;;;;;5135443;27;20039;-34
2023/05/07 03:18:07;;;;;;;35.50;26.40;;;12.10;99.90;;;;;;5153035;27;20045;-34
2023/05/07 03:20:33;;;;;;;34.00;26.25;;;12.20;99.90;;;;;;5155863;27;20122;-35
2023/05/07 03:22:59;;;;;;;34.90;26.00;;;12.30;99.90;;;;;;5135933;27;20065;-34
2023/05/07 03:25:25;;;;;;;38.05;28.30;;;12.20;99.90;;;;;;5135119;27;20173;-34
2023/05/07 03:27:51;;;;;;;34.28;28.05;;;12.00;99.90;;;;;;5149033;27;20038;-34
2023/05/07 03:30:17;;;;;;;37.33;28.70;;;12.10;99.90;;;;;;5151500;27;20043;-34
2023/05/07 03:32:42;;;;;;;37.20;28.38;;;12.20;99.90;;;;;;5153566;27;20034;-34
2023/05/07 03:35:08;;;;;;;34.20;28.00;;;12.20;99.90;;;;;;5135423;27;20063;-34
2023/05/07 03:37:34;;;;;;;37.72;28.30;;;12.00;99.90;;;;;;5136373;27;20100;-34
2023/05/07 03:40:00;;;;;;;38.75;29.58;;;12.20;99.90;;;;;;5154569;27;20090;-34
2023/05/07 03:42:25;;;;;;;36.35;29.10;;;12.10;99.90;;;;;;5155453;27;20031;-35
2023/05/07 03:44:51;;;;;;;35.55;27.80;;;11.90;99.90;;;;;;5155617;27;20030;-34
2023/05/07 03:47:17;;;;;;;40.17;28.98;;;12.10;99.90;;;;;;5151267;27;20038;-34
2023/05/07 03:49:43;;;;;;;36.95;27.42;;;11.90;99.90;;;;;;5135220;27;20070;-34
2023/05/07 03:52:08;;;;;;;36.95;26.85;;;11.90;99.90;;;;;;5135101;27;20449;-34
2023/05/07 03:54:34;;;;;;;35.45;27.20;;;12.10;99.90;;;;;;5134751;27;20492;-34
2023/05/07 03:57:00;;;;;;;40.67;29.48;;;12.00;99.90;;;;;;5149835;27;20042;-34
2023/05/07 03:59:26;;;;;;;39.17;28.67;;;12.30;99.90;;;;;;5155333;27;20399;-34
2023/05/07 04:01:52;;;;;;;37.88;29.20;;;12.10;99.90;;;;;;5155805;27;20042;-34
2023/05/07 04:04:17;;;;;;;35.50;29.15;;;11.80;99.90;;;;;;5155394;27;20105;-34
2023/05/07 04:06:43;;;;;;;35.10;28.00;;;12.00;99.90;;;;;;5155655;27;20046;-34
2023/05/07 04:09:09;;;;;;;36.85;28.65;;;12.20;99.90;;;;;;5174441;27;20086;-35
2023/05/07 04:11:35;;;;;;;35.45;27.67;;;11.90;99.90;;;;;;5155703;27;20117;-34
2023/05/07 04:14:01;;;;;;;37.65;27.75;;;12.00;99.90;;;;;;5140467;27;20042;-34
2023/05/07 04:16:27;;;;;;;37.55;28.30;;;11.80;99.90;;;;;;5138088;27;20043;-34
2023/05/07 04:18:52;;;;;;;33.72;26.65;;;11.90;99.90;;;;;;5143007;27;20517;-34
2023/05/07 04:21:19;;;;;;;38.58;29.17;;;11.90;99.90;;;;;;5136553;27;20510;-34
2023/05/07 04:23:46;;;;;;;36.38;27.42;;;12.00;99.90;;;;;;5137173;27;20388;-34
2023/05/07 04:26:12;;;;;;;36.40;28.20;;;12.00;99.90;;;;;;5171340;27;20049;-34
2023/05/07 04:28:39;;;;;;;32.58;25.95;;;12.00;99.90;;;;;;5138533;27;20030;-34
2023/05/07 04:31:05;;;;;;;34.67;27.10;;;12.00;99.90;;;;;;5138673;27;20126;-34
2023/05/07 04:33:31;;;;;;;33.45;26.25;;;11.90;99.90;;;;;;5138465;27;20624;-34
2023/05/07 04:35:57;;;;;;;32.47;26.42;;;11.90;99.90;;;;;;5138595;27;20377;-34
2023/05/07 04:38:25;;;;;;;32.75;26.60;;;11.90;99.90;;;;;;5143199;27;20101;-34
2023/05/07 04:40:51;;;;;;;34.90;26.55;;;11.90;99.90;;;;;;5159208;27;20120;-34
2023/05/07 04:43:17;;;;;;;32.03;25.42;;;12.10;99.90;;;;;;5159157;27;20141;-34
2023/05/07 04:45:43;;;;;;;30.00;24.52;;;12.20;99.90;;;;;;5153525;27;20122;-35
2023/05/07 04:48:09;;;;;;;29.23;25.20;;;12.00;99.90;;;;;;5138202;27;20030;-34
2023/05/07 04:50:35;;;;;;;30.95;25.30;;;11.90;99.90;;;;;;5143876;27;20058;-34
2023/05/07 04:53:01;;;;;;;29.95;25.70;;;11.90;99.90;;;;;;5138244;27;20039;-34
2023/05/07 04:55:26;;;;;;;29.75;24.52;;;12.10;99.90;;;;;;5141878;27;20063;-34
2023/05/07 04:57:53;;;;;;;32.05;25.77;;;12.00;99.90;;;;;;5145187;27;20064;-34
2023/05/07 05:00:19;;;;;;;31.85;24.35;;;12.20;99.90;;;;;;5143059;27;20030;-34
2023/05/07 05:02:45;;;;;;;32.15;24.30;;;12.00;99.90;;;;;;5158834;27;20407;-34
2023/05/07 05:05:11;;;;;;;29.00;24.00;;;12.10;99.90;;;;;;5158124;27;20444;-34
2023/05/07 05:07:37;;;;;;;27.52;23.25;;;12.00;99.90;;;;;;5137800;27;20031;-34
2023/05/07 05:10:05;;;;;;;30.08;23.00;;;12.10;99.90;;;;;;5153414;27;20034;-34
2023/05/07 05:12:31;;;;;;;29.88;23.98;;;12.30;99.90;;;;;;5141610;27;20034;-34
2023/05/07 05:14:57;;;;;;;31.05;23.98;;;12.30;99.90;;;;;;5145801;27;20042;-34
2023/05/07 05:17:23;;;;;;;29.30;23.42;;;12.10;99.90;;;;;;5143840;27;20077;-34
2023/05/07 05:19:49;;;;;;;33.67;23.90;;;12.20;99.90;;;;;;5140346;27;20400;-34
2023/05/07 05:22:15;;;;;;;30.17;23.80;;;12.20;99.90;;;;;;5145280;27;20061;-34
2023/05/07 05:24:41;;;;;;;28.35;23.20;;;12.10;99.90;;;;;;5158050;27;20038;-34
2023/05/07 05:27:06;;;;;;;28.30;24.60;;;12.30;99.90;;;;;;5157766;27;20050;-34
2023/05/07 05:29:32;;;;;;;29.55;24.25;;;12.20;99.90;;;;;;5158356;27;20037;-34
2023/05/07 05:31:58;;;;;;;28.15;22.77;;;12.30;99.90;;;;;;5153561;27;20502;-34
2023/05/07 05:34:23;;;;;;;30.27;24.15;;;12.50;99.90;;;;;;5153538;27;20034;-34
2023/05/07 05:36:49;;;;;;;29.75;23.98;;;12.40;99.90;;;;;;5147091;27;20042;-34
2023/05/07 05:39:15;;;;;;;28.40;23.20;;;12.40;99.90;;;;;;5158063;27;20129;-34
2023/05/07 05:41:41;;;;;;;29.98;23.58;;;12.60;99.90;;;;;;5146118;27;20069;-34
2023/05/07 05:44:07;;;;;;;28.13;23.35;;;12.60;99.90;;;;;;5137203;27;20526;-34
2023/05/07 05:46:32;;;;;;;28.08;22.83;;;12.40;99.90;;;;;;5152351;27;20109;-34
2023/05/07 05:48:58;;;;;;;30.95;24.70;;;12.60;99.90;;;;;;5157861;27;20046;-34
2023/05/07 05:51:24;;;;;;;30.05;24.15;;;12.50;99.90;;;;;;5146747;27;20038;-34
2023/05/07 05:53:50;;;;;;;29.70;24.05;;;12.50;99.90;;;;;;5137005;27;20035;-34
2023/05/07 05:56:16;;;;;;;29.65;24.38;;;12.60;99.90;;;;;;5137188;27;20488;-34
2023/05/07 05:58:42;;;;;;;31.00;24.95;;;12.80;99.90;;;;;;5151784;27;20042;-34
2023/05/07 06:01:07;;;;;;;28.83;24.85;;;12.70;99.90;;;;;;5157364;27;20105;-34
2023/05/07 06:03:33;;;;;;;28.42;24.83;;;12.70;99.90;;;;;;5157524;27;20121;-34
2023/05/07 06:06:02;;;;;;;31.70;23.88;;;12.70;99.90;;;;;;5157303;27;20046;-34
2023/05/07 06:08:31;;;;;;;29.45;23.67;;;12.90;99.90;;;;;;5146351;27;20126;-34
2023/05/07 06:10:57;;;;;;;28.80;24.17;;;12.80;99.90;;;;;;5136233;27;20035;-34
2023/05/07 06:13:23;;;;;;;32.45;25.48;;;12.90;99.90;;;;;;5136718;27;20046;-34
2023/05/07 06:15:49;;;;;;;33.10;24.77;;;12.80;99.90;;;;;;5136659;27;20078;-34
2023/05/07 06:18:15;;;;;;;29.48;24.40;;;12.80;99.90;;;;;;5136306;27;20070;-34
2023/05/07 06:20:40;;;;;;;29.08;24.65;;;12.80;99.90;;;;;;5137952;27;20150;-34
2023/05/07 06:23:06;;;;;;;30.55;23.95;;;13.00;99.90;;;;;;5157213;27;20041;-34
2023/05/07 06:25:32;;;;;;;32.88;25.80;;;12.70;99.90;;;;;;5136212;27;20070;-34
2023/05/07 06:27:58;;;;;;;31.50;25.50;;;12.70;99.90;;;;;;5139026;27;20038;-34
2023/05/07 06:30:24;;;;;;;32.20;25.27;;;13.00;99.90;;;;;;5142924;27;20035;-34
2023/05/07 06:32:50;;;;;;;31.38;24.98;;;12.90;99.90;;;;;;5135988;27;20118;-34
2023/05/07 06:35:15;;;;;;;33.58;26.30;;;12.80;99.90;;;;;;5143689;27;20066;-34
2023/05/07 06:37:42;;;;;;;33.53;25.73;;;12.80;99.90;;;;;;5151776;27;20506;-34
2023/05/07 06:40:09;;;;;;;29.42;24.55;;;12.70;99.90;;;;;;5136166;27;20045;-34
2023/05/07 06:42:36;;;;;;;33.78;25.42;;;12.90;99.90;;;;;;5150271;27;20030;-34
2023/05/07 06:45:02;;;;;;;32.22;25.90;;;13.10;99.90;;;;;;5136967;27;20026;-34
2023/05/07 06:47:28;;;;;;;34.58;25.33;;;13.00;99.90;;;;;;5135023;27;20099;-35
2023/05/07 06:49:54;;;;;;;34.67;27.52;;;13.00;99.90;;;;;;5150538;27;20030;-34
2023/05/07 06:52:19;;;;;;;34.60;26.77;;;12.80;99.90;;;;;;5138248;27;20120;-34
2023/05/07 06:54:45;;;;;;;33.85;26.13;;;13.00;99.90;;;;;;5149596;27;20137;-34
2023/05/07 06:57:12;;;;;;;34.45;26.08;;;13.20;99.90;;;;;;5156536;27;20045;-34
2023/05/07 06:59:38;;;;;;;32.75;26.10;;;13.10;99.90;;;;;;5150150;27;20061;-34
2023/05/07 07:02:03;;;;;;;33.70;26.60;;;13.10;99.90;;;;;;5155946;27;20479;-34
2023/05/07 07:04:29;;;;;;;34.92;26.38;;;13.40;99.90;;;;;;5156715;27;20061;-34
2023/05/07 07:06:56;;;;;;;31.92;25.67;;;13.30;99.90;;;;;;5153607;27;20519;-34
2023/05/07 07:09:22;;;;;;;32.92;26.40;;;13.40;99.90;;;;;;5144303;27;20500;-34
2023/05/07 07:11:48;;;;;;;31.95;26.35;;;13.50;99.90;;;;;;5155984;27;20070;-34
2023/05/07 07:14:14;;;;;;;36.00;27.00;;;13.50;99.90;;;;;;5155814;27;20034;-34
2023/05/07 07:16:40;;;;;;;35.50;27.17;;;13.30;99.90;;;;;;5147957;27;20043;-34
2023/05/07 07:19:06;;;;;;;33.35;26.55;;;13.50;99.90;;;;;;5135307;27;20046;-34
2023/05/07 07:21:32;;;;;;;31.05;25.73;;;13.70;99.90;;;;;;5142269;27;20534;-34
2023/05/07 07:23:57;;;;;;;33.33;26.23;;;13.80;99.90;;;;;;5155231;27;20046;-35
2023/05/07 07:26:23;;;;;;;34.00;26.45;;;14.00;99.90;;;;;;5154488;27;20069;-34
2023/05/07 07:28:49;;;;;;;30.60;25.25;;;14.20;99.90;;;;;;5145909;27;20062;-34
2023/05/07 07:31:15;;;;;;;33.28;27.48;;;14.10;99.90;;;;;;5152958;27;20420;-34
2023/05/07 07:33:41;;;;;;;33.47;26.20;;;14.10;99.90;;;;;;5134281;27;20039;-34
2023/05/07 07:36:07;;;;;;;31.63;24.88;;;14.50;99.90;;;;;;5146211;27;20038;-34
2023/05/07 07:38:33;;;;;;;33.17;26.80;;;14.30;99.90;;;;;;5138670;27;20502;-34
2023/05/07 07:41:00;;;;;;;35.65;28.08;;;14.70;99.90;;;;;;5136596;27;20042;-34
2023/05/07 07:43:26;;;;;;;33.40;26.73;;;14.50;99.90;;;;;;5135409;27;20119;-34
2023/05/07 07:45:51;;;;;;;31.42;26.70;;;14.50;99.90;;;;;;5143492;27;20490;-34
2023/05/07 07:48:17;;;;;;;34.38;27.60;;;14.40;99.90;;;;;;5155757;27;20045;-34
2023/05/07 07:50:43;;;;;;;32.80;25.88;;;14.60;99.90;;;;;;5141455;27;20099;-34
2023/05/07 07:53:10;;;;;;;32.58;26.23;;;14.50;99.90;;;;;;5156214;27;20035;-35
2023/05/07 07:55:41;;;;;;;31.98;26.48;;;14.70;99.90;;;;;;5138619;27;20031;-34
2023/05/07 07:58:07;;;;;;;32.78;25.85;;;14.70;99.90;;;;;;5146376;27;20510;-34
2023/05/07 08:00:33;;;;;;;34.30;26.55;;;14.90;99.90;;;;;;5138840;27;20118;-34
2023/05/07 08:02:59;;;;;;;31.55;25.83;;;14.80;99.90;;;;;;5157794;27;20072;-34
2023/05/07 08:05:24;;;;;;;33.38;26.58;;;14.80;99.90;;;;;;5157288;27;20391;-35
2023/05/07 08:07:52;;;;;;;32.47;26.25;;;14.90;99.90;;;;;;5144333;27;20038;-35
2023/05/07 08:10:21;;;;;;;31.70;27.35;;;15.00;99.90;;;;;;5159586;27;20090;-34
2023/05/07 08:12:49;;;;;;;31.02;26.10;;;15.10;99.90;;;;;;5178423;27;20379;-34
2023/05/07 08:15:15;;;;;;;32.70;26.65;;;15.70;99.90;;;;;;5141786;27;20369;-34
2023/05/07 08:17:41;;;;;;;31.67;26.02;;;15.80;99.90;;;;;;5138465;27;20046;-34
2023/05/07 08:20:07;;;;;;;29.77;25.73;;;16.30;99.90;;;;;;5138873;27;20034;-34
2023/05/07 08:22:34;;;;;;;28.98;24.63;;;16.80;99.90;;;;;;5138605;27;20039;-35
2023/05/07 08:25:01;;;;;;;28.35;25.17;;;17.30;99.90;;;;;;5164074;27;20507;-35
2023/05/07 08:27:26;;;;;;;29.38;25.23;;;17.30;99.90;;;;;;5159027;27;20041;-34
2023/05/07 08:29:52;;;;;;;31.13;25.30;;;17.50;99.90;;;;;;5154266;27;20034;-34
2023/05/07 08:32:18;;;;;;;28.70;24.55;;;17.50;99.90;;;;;;5138047;27;20042;-34
2023/05/07 08:34:44;;;;;;;30.02;24.85;;;17.20;99.90;;;;;;5157014;27;20030;-34
2023/05/07 08:37:09;;;;;;;29.95;24.88;;;17.00;99.90;;;;;;5142067;27;20049;-35
2023/05/07 08:39:35;;;;;;;29.45;24.50;;;16.80;99.90;;;;;;5140882;27;20043;-34
2023/05/07 08:42:04;;;;;;;31.25;25.33;;;16.70;99.90;;;;;;5172561;27;20034;-34
2023/05/07 08:44:34;;;;;;;31.00;25.25;;;16.60;99.90;;;;;;5154982;27;20045;-35
2023/05/07 08:47:02;;;;;;;27.77;23.55;;;16.80;99.90;;;;;;5143960;27;20043;-34
2023/05/07 08:49:28;;;;;;;28.30;25.30;;;16.60;99.90;;;;;;5158871;27;20062;-35
2023/05/07 08:51:54;;;;;;;29.15;24.38;;;16.80;99.90;;;;;;5152462;27;20539;-35
2023/05/07 08:54:21;;;;;;;27.83;23.67;;;16.90;99.90;;;;;;5138074;27;20057;-34
2023/05/07 08:56:47;;;;;;;28.52;24.23;;;17.10;99.90;;;;;;5137936;27;20046;-34
2023/05/07 08:59:13;;;;;;;28.88;24.42;;;17.40;99.90;;;;;;5142280;27;20113;-34
2023/05/07 09:01:39;;;;;;;27.17;24.27;;;17.70;99.90;;;;;;5147301;27;20118;-34
2023/05/07 09:04:06;;;;;;;27.13;23.38;;;18.10;99.90;;;;;;5151942;27;20045;-35
2023/05/07 09:06:32;;;;;;;27.98;24.80;;;18.20;99.90;;;;;;5137228;27;20067;-34
2023/05/07 09:09:00;;;;;;;26.92;22.60;;;18.10;99.90;;;;;;5136852;27;20035;-34
2023/05/07 09:11:26;;;;;;;24.25;21.38;;;18.30;99.90;;;;;;5137842;27;20121;-34
2023/05/07 09:13:57;;;;;;;27.17;23.25;;;18.50;99.90;;;;;;5144167;27;20150;-35
2023/05/07 09:16:24;;;;;;;25.48;22.77;;;18.10;99.90;;;;;;5137424;27;20039;-36
2023/05/07 09:18:54;;;;;;;25.23;22.63;;;18.10;99.90;;;;;;5154552;27;20034;-34
2023/05/07 09:21:22;;;;;;;25.08;22.15;;;18.40;99.90;;;;;;5154791;27;20041;-35
2023/05/07 09:23:50;;;;;;;24.55;21.92;;;18.80;99.90;;;;;;5149507;27;20038;-34
2023/05/07 09:26:16;;;;;;;26.67;21.70;;;19.00;99.90;;;;;;5143928;27;20047;-35
2023/05/07 09:28:42;;;;;;;25.13;21.90;;;19.20;99.90;;;;;;5161628;27;20035;-34
2023/05/07 09:31:09;;;;;;;24.92;22.33;;;19.60;99.90;;;;;;5139092;27;20046;-35
2023/05/07 09:33:35;;;;;;;24.50;21.98;;;20.00;99.90;;;;;;5142532;27;20437;-34
2023/05/07 09:36:05;;;;;;;25.77;21.45;;;20.00;99.90;;;;;;5153973;27;20049;-35
2023/05/07 09:38:32;;;;;;;24.95;22.33;;;20.20;99.90;;;;;;5174348;27;20040;-35
2023/05/07 09:41:03;;;;;;;22.35;20.05;;;20.60;99.90;;;;;;5155724;27;20098;-35
2023/05/07 09:43:35;;;;;;;22.50;20.20;;;21.20;99.90;;;;;;5152892;27;20121;-38
2023/05/07 09:46:14;;;;;;;21.52;19.33;;;21.40;99.90;;;;;;5135085;27;20046;-34
2023/05/07 09:48:42;;;;;;;21.83;19.63;;;21.60;99.90;;;;;;5134827;27;20054;-37
2023/05/07 09:51:49;;;;;;;21.75;19.65;;;21.90;99.90;;;;;;5155456;27;20495;-35
2023/05/07 09:54:15;;;;;;;22.20;19.95;;;21.60;99.90;;;;;;5136861;27;20070;-38
2023/05/07 09:56:46;;;;;;;22.08;19.77;;;22.00;99.90;;;;;;5137418;27;20070;-36
2023/05/07 09:59:16;;;;;;;21.95;19.77;;;21.80;99.90;;;;;;5143055;27;20030;-39
2023/05/07 10:01:43;;;;;;;21.38;19.38;;;22.10;99.90;;;;;;5157380;27;20034;-36
2023/05/07 10:04:10;;;;;;;22.85;20.65;;;21.90;99.90;;;;;;5150659;27;20110;-37
2023/05/07 10:06:37;;;;;;;22.70;20.60;;;21.10;99.90;;;;;;5154311;27;20077;-38
2023/05/07 10:09:07;;;;;;;21.13;18.98;;;20.90;99.90;;;;;;5152301;27;20035;-38
2023/05/07 10:11:36;;;;;;;22.55;20.40;;;20.90;99.90;;;;;;5149115;27;20031;-37
2023/05/07 10:14:05;;;;;;;21.05;19.05;;;21.30;99.90;;;;;;5136272;27;20373;-37
2023/05/07 10:16:36;;;;;;;21.15;19.05;;;21.30;99.90;;;;;;5143136;27;20041;-37
2023/05/07 10:19:06;;;;;;;20.52;18.60;;;21.70;99.90;;;;;;5157004;27;20056;-39
2023/05/07 10:21:43;;;;;;;22.33;20.08;;;21.80;99.90;;;;;;5156353;27;20038;-38
2023/05/07 10:24:36;;;;;;;20.88;18.85;;;21.50;99.90;;;;;;5157123;27;20038;-37
2023/05/07 10:27:10;;;;;;;20.40;18.50;;;21.50;99.90;;;;;;5143742;27;20069;-34
2023/05/07 10:30:07;;;;;;;20.35;18.38;;;22.10;99.90;;;;;;5136116;27;20070;-36
2023/05/07 10:32:44;;;;;;;20.40;18.42;;;21.90;99.90;;;;;;5142413;27;20524;-36
2023/05/07 10:35:17;;;;;;;20.98;19.08;;;22.30;99.90;;;;;;5138823;27;20039;-37
2023/05/07 10:37:44;;;;;;;20.73;18.67;;;21.80;99.90;;;;;;5149788;27;20038;-34
2023/05/07 10:40:11;;;;;;;19.83;18.02;;;22.00;99.90;;;;;;5155118;27;20414;-36
2023/05/07 10:42:37;;;;;;;19.52;17.58;;;22.70;99.90;;;;;;5134744;27;20491;-35
2023/05/07 10:45:16;;;;;;;18.92;17.23;;;23.00;99.90;;;;;;5135647;27;20046;-36
2023/05/07 10:48:13;;;;;;;19.90;18.00;;;23.50;99.90;;;;;;5135669;27;20510;-36
2023/05/07 10:50:44;;;;;;;20.13;18.15;;;24.00;99.90;;;;;;5137900;27;20030;-39
2023/05/07 10:53:18;;;;;;;19.60;17.70;;;23.80;99.90;;;;;;5154458;27;20439;-37
2023/05/07 10:55:47;;;;;;;19.90;18.00;;;23.80;99.90;;;;;;5150098;27;20049;-36
2023/05/07 10:58:26;;;;;;;19.10;17.40;;;24.20;99.90;;;;;;5163308;27;20424;-38
2023/05/07 11:01:00;;;;;;;19.42;17.55;;;24.30;99.90;;;;;;5140164;27;20499;-35
2023/05/07 11:03:27;;;;;;;18.92;17.30;;;24.10;99.90;;;;;;5154181;27;20078;-35
2023/05/07 11:06:12;;;;;;;18.58;16.85;;;24.40;99.90;;;;;;5149828;27;20483;-38
2023/05/07 11:08:50;;;;;;;18.92;17.23;;;24.10;99.90;;;;;;5135622;27;20074;-37
2023/05/07 11:11:16;;;;;;;17.83;16.15;;;24.20;90.80;;;;;;5141266;27;20407;-39
2023/05/07 11:13:47;;;;;;;17.63;16.10;;;24.90;99.90;;;;;;5155895;27;20038;-36
2023/05/07 11:16:20;;;;;;;19.27;17.45;;;25.00;99.90;;;;;;5151511;27;20091;-36
2023/05/07 11:18:52;;;;;;;17.63;16.13;;;25.20;98.50;;;;;;5134968;27;20050;-36
2023/05/07 11:21:48;;;;;;;18.55;16.90;;;25.40;99.90;;;;;;5153871;27;20053;-36
2023/05/07 11:24:15;;;;;;;16.77;15.27;;;24.80;92.70;;;;;;5116648;27;20089;-37
2023/05/07 11:26:49;;;;;;;18.40;16.70;;;25.60;99.80;;;;;;5152669;27;20049;-35
2023/05/07 11:29:18;;;;;;;17.38;15.85;;;25.90;94.70;;;;;;5134972;27;20080;-38
2023/05/07 11:31:52;;;;;;;16.80;15.30;;;26.30;91.20;;;;;;5152327;27;20164;-36
2023/05/07 11:34:25;;;;;;;18.63;16.95;;;26.20;87.20;;;;;;5154078;27;20546;-36
2023/05/07 11:36:52;;;;;;;17.80;16.20;;;26.00;79.30;;;;;;5153946;27;20042;-37
2023/05/07 11:39:25;;;;;;;18.33;16.63;;;25.40;83.50;;;;;;5146899;27;20117;-38
2023/05/07 11:41:50;;;;;;;17.42;15.85;;;25.30;84.40;;;;;;5134778;27;20042;-35
2023/05/07 11:44:16;;;;;;;19.15;17.48;;;25.80;87.40;;;;;;5134812;27;20039;-36
2023/05/07 11:46:45;;;;;;;18.25;16.70;;;25.50;83.30;;;;;;5135048;27;20039;-36
2023/05/07 11:49:11;;;;;;;17.70;16.13;;;25.60;82.60;;;;;;5135033;27;20035;-34
2023/05/07 11:51:37;;;;;;;18.10;16.40;;;25.80;85.40;;;;;;5147342;27;20394;-33
2023/05/07 11:54:08;;;;;;;17.77;16.15;;;25.30;85.90;;;;;;5151631;27;20038;-37
2023/05/07 11:56:35;;;;;;;19.77;17.88;;;25.10;85.20;;;;;;5135070;27;20531;-36
2023/05/07 11:59:01;;;;;;;17.88;16.08;;;25.00;85.00;;;;;;5152224;27;20034;-36
2023/05/07 12:01:26;;;;;;;18.00;16.40;;;24.70;87.10;;;;;;5146566;27;20122;-36
2023/05/07 12:03:52;;;;;;;17.65;15.98;;;24.30;90.60;;;;;;5134981;27;20113;-38
2023/05/07 12:06:18;;;;;;;16.73;15.20;;;24.50;92.00;;;;;;5137296;27;20049;-36
2023/05/07 12:08:45;;;;;;;17.58;16.08;;;24.40;92.80;;;;;;5148246;27;20035;-37
2023/05/07 12:11:18;;;;;;;18.35;16.70;;;24.90;90.50;;;;;;5155188;27;20038;-36
2023/05/07 12:13:44;;;;;;;19.95;18.23;;;25.00;87.10;;;;;;5155570;27;20560;-34
2023/05/07 12:16:10;;;;;;;18.75;17.05;;;25.40;86.00;;;;;;5151453;27;20480;-36
2023/05/07 12:18:37;;;;;;;18.55;16.75;;;25.80;84.60;;;;;;5144810;27;20427;-38
2023/05/07 12:21:05;;;;;;;18.90;17.20;;;25.40;83.70;;;;;;5153461;27;20038;-39
2023/05/07 12:23:31;;;;;;;18.30;16.70;;;25.00;83.60;;;;;;5141868;27;20046;-36
2023/05/07 12:25:57;;;;;;;19.40;17.60;;;25.20;86.60;;;;;;5142157;27;20487;-37
2023/05/07 12:28:22;;;;;;;19.02;17.27;;;25.10;87.40;;;;;;5151811;27;20078;-35